Time;durP1;ratioP1;P1;durP2;ratioP2;P2;SDS_P1;SDS_P2;PMS_P1;PMS_P2;Temp;Humidity;BMP_temperature;BMP_pressure;BME280_temperature;BME280_humidity;BME280_pressure;Samples;Min_cycle;Max_cycle;Signal;HPM_P1;HPM_P2
2022/03/04 00:07:31;;;;;;;34.30;15.38;;;;;;;1.34;78.97;101809.41;5093254;28;20047;-77
2022/03/04 00:13:17;;;;;;;33.72;16.48;;;;;;;1.22;80.47;101817.41;5092991;28;20081;-77
2022/03/04 00:15:43;;;;;;;31.77;14.57;;;;;;;1.19;81.02;101811.56;5090578;28;20052;-78
2022/03/04 00:21:30;;;;;;;34.08;15.80;;;;;;;1.09;82.25;101823.81;5092922;28;20113;-79
2022/03/04 00:23:55;;;;;;;32.25;14.55;;;;;;;1.01;81.98;101823.63;5091830;28;20079;-79
2022/03/04 00:29:42;;;;;;;34.75;14.95;;;;;;;0.91;83.28;101827.03;5092954;28;20074;-75
2022/03/04 00:32:07;;;;;;;32.10;15.40;;;;;;;0.82;83.20;101809.34;5074420;28;20039;-77
2022/03/04 00:34:32;;;;;;;37.25;15.20;;;;;;;0.92;83.85;101827.84;5073614;28;20032;-78
2022/03/04 00:36:58;;;;;;;31.92;16.50;;;;;;;0.87;83.95;101828.25;5092209;28;20055;-79
2022/03/04 00:39:23;;;;;;;35.08;15.23;;;;;;;0.83;83.52;101831.22;5092316;28;20028;-78
2022/03/04 00:41:48;;;;;;;33.33;14.88;;;;;;;0.78;83.81;101828.97;5077198;28;20032;-76
2022/03/04 00:47:36;;;;;;;33.40;15.05;;;;;;;0.76;83.45;101833.53;5092541;28;20039;-76
2022/03/04 00:53:23;;;;;;;32.15;14.95;;;;;;;0.73;84.23;101832.97;5091865;28;20055;-76
2022/03/04 00:55:48;;;;;;;35.30;16.50;;;;;;;0.71;84.37;101832.25;5092444;28;20468;-76
2022/03/04 00:58:14;;;;;;;36.92;15.38;;;;;;;0.70;84.62;101838.47;5092684;28;20028;-76
2022/03/04 01:00:39;;;;;;;40.60;16.50;;;;;;;0.65;84.59;101830.97;5091642;28;20141;-76
2022/03/04 01:06:25;;;;;;;34.90;16.05;;;;;;;0.53;84.31;101835.41;5092178;28;20047;-76
2022/03/04 01:12:12;;;;;;;37.70;15.40;;;;;;;0.43;84.96;101834.50;5092901;28;20050;-76
2022/03/04 01:14:38;;;;;;;29.48;14.52;;;;;;;0.42;85.16;101839.88;5091590;28;20451;-75
2022/03/04 01:17:03;;;;;;;36.65;16.38;;;;;;;0.39;85.86;101833.06;5074190;28;20024;-75
2022/03/04 01:22:50;;;;;;;33.67;15.18;;;;;;;0.42;85.84;101845.97;5092481;28;20074;-75
2022/03/04 01:28:37;;;;;;;35.47;15.13;;;;;;;0.41;86.30;101832.94;5092473;28;20101;-76
2022/03/04 01:31:02;;;;;;;33.65;15.85;;;;;;;0.38;86.61;101835.81;5074069;28;20024;-76
2022/03/04 01:33:28;;;;;;;33.10;15.45;;;;;;;0.35;86.50;101833.44;5091119;28;20036;-75
2022/03/04 01:39:15;;;;;;;38.60;15.23;;;;;;;0.29;86.33;101832.97;5092244;28;20372;-75
2022/03/04 01:41:40;;;;;;;39.92;15.20;;;;;;;0.19;86.67;101826.75;5091721;28;20024;-75
2022/03/04 01:44:05;;;;;;;35.17;15.68;;;;;;;0.16;86.90;101813.88;5092145;28;20105;-74
2022/03/04 01:46:32;;;;;;;38.63;16.40;;;;;;;0.16;86.88;101821.75;5073006;28;20048;-74
2022/03/04 01:48:57;;;;;;;35.92;16.63;;;;;;;0.17;87.00;101820.78;5073588;28;20115;-75
2022/03/04 01:54:44;;;;;;;40.22;16.67;;;;;;;0.17;87.49;101815.53;5095444;28;20040;-74
2022/03/04 01:57:10;;;;;;;36.88;16.38;;;;;;;0.12;87.76;101816.88;5077191;28;20396;-75
2022/03/04 01:59:35;;;;;;;48.55;18.23;;;;;;;0.12;88.14;101830.00;5093473;28;20089;-75
2022/03/04 02:02:00;;;;;;;44.33;17.25;;;;;;;0.10;88.78;101831.94;5095014;28;20055;-75
2022/03/04 02:04:27;;;;;;;42.45;17.17;;;;;;;0.05;89.26;101839.34;5094522;28;20048;-76
2022/03/04 02:10:14;;;;;;;38.47;15.93;;;;;;;-0.02;89.43;101838.97;5094814;28;20395;-78
2022/03/04 02:12:39;;;;;;;45.33;18.17;;;;;;;-0.04;89.68;101838.25;5095084;28;20032;-76
2022/03/04 02:15:06;;;;;;;41.72;17.67;;;;;;;-0.03;89.65;101850.44;5094986;28;20123;-76
2022/03/04 02:17:32;;;;;;;44.30;17.08;;;;;;;-0.08;89.60;101836.84;5093172;28;20044;-77
2022/03/04 02:19:58;;;;;;;40.15;17.25;;;;;;;-0.07;90.24;101841.13;5076895;28;20024;-77
2022/03/04 02:22:24;;;;;;;44.22;16.73;;;;;;;-0.08;89.58;101827.16;5094140;28;20040;-77
2022/03/04 02:24:49;;;;;;;38.92;17.80;;;;;;;-0.10;89.91;101826.44;5093635;28;20020;-76
2022/03/04 02:27:15;;;;;;;42.80;19.58;;;;;;;-0.15;90.11;101825.13;5076891;28;20527;-77
2022/03/04 02:33:05;;;;;;;44.03;19.38;;;;;;;-0.24;90.39;101820.59;5094796;28;20043;-78
2022/03/04 02:35:30;;;;;;;38.63;16.55;;;;;;;-0.33;91.41;101817.72;5093824;28;20043;-78
2022/03/04 02:37:56;;;;;;;40.25;18.13;;;;;;;-0.30;91.72;101821.91;5076481;28;20333;-77
2022/03/04 02:40:22;;;;;;;42.67;17.98;;;;;;;-0.38;91.58;101819.88;5092850;28;20056;-77
2022/03/04 02:46:09;;;;;;;41.35;19.38;;;;;;;-0.50;91.96;101801.59;5095091;28;20502;-77
2022/03/04 02:48:34;;;;;;;39.45;18.75;;;;;;;-0.46;92.27;101808.28;5093907;28;20063;-77
2022/03/04 02:50:59;;;;;;;48.45;19.88;;;;;;;-0.46;92.20;101811.75;5076271;28;20028;-76
2022/03/04 02:53:25;;;;;;;40.97;17.45;;;;;;;-0.45;92.75;101807.34;5079541;28;20109;-77
2022/03/04 02:55:50;;;;;;;44.08;19.05;;;;;;;-0.47;92.54;101810.09;5094601;28;20082;-77
2022/03/04 02:58:15;;;;;;;46.75;18.73;;;;;;;-0.52;92.75;101809.59;5094492;28;20032;-78
2022/03/04 03:00:41;;;;;;;48.22;19.25;;;;;;;-0.53;93.04;101807.94;5093615;28;20032;-77
2022/03/04 03:03:06;;;;;;;44.22;18.27;;;;;;;-0.56;93.67;101808.19;5092783;28;20056;-75
2022/03/04 03:05:31;;;;;;;46.60;19.92;;;;;;;-0.56;94.15;101816.06;5093498;28;20076;-77
2022/03/04 03:07:57;;;;;;;42.20;19.15;;;;;;;-0.60;93.54;101808.50;5094447;28;20034;-77
2022/03/04 03:10:22;;;;;;;53.20;20.17;;;;;;;-0.57;93.83;101816.16;5094239;28;20022;-77
2022/03/04 03:12:47;;;;;;;50.05;19.35;;;;;;;-0.65;93.87;101812.31;5075615;28;20441;-76
2022/03/04 03:15:13;;;;;;;42.22;18.00;;;;;;;-0.67;93.18;101802.88;5094152;28;20036;-77
2022/03/04 03:17:38;;;;;;;46.00;18.98;;;;;;;-0.74;94.34;101804.31;5093278;28;20108;-80
2022/03/04 03:20:05;;;;;;;46.33;19.67;;;;;;;-0.73;94.79;101808.63;5094119;28;20035;-79
2022/03/04 03:22:31;;;;;;;48.25;21.85;;;;;;;-0.79;94.97;101803.84;5094008;28;20499;-80
2022/03/04 03:28:18;;;;;;;47.40;18.85;;;;;;;-0.85;95.55;101806.94;5094428;28;20166;-78
2022/03/04 03:34:05;;;;;;;47.45;18.55;;;;;;;-0.94;96.69;101811.91;5093899;28;20070;-79
2022/03/04 03:36:30;;;;;;;46.83;18.95;;;;;;;-0.94;96.26;101816.31;5092911;28;20067;-78
2022/03/04 03:42:17;;;;;;;46.60;20.23;;;;;;;-0.91;97.13;101823.13;5093933;28;20042;-77
2022/03/04 03:44:43;;;;;;;49.22;19.25;;;;;;;-0.89;96.45;101819.44;5092497;28;20024;-79
2022/03/04 04:00:35;;;;;;;48.10;21.02;;;;;;;-0.91;96.94;101820.50;5093910;28;20063;-79
2022/03/04 04:03:00;;;;;;;52.00;20.83;;;;;;;-0.90;97.18;101825.63;5093366;28;20032;-79
2022/03/04 04:08:47;;;;;;;49.03;21.65;;;;;;;-0.90;97.58;101835.28;5093638;28;20101;-79
2022/03/04 04:11:13;;;;;;;49.90;20.55;;;;;;;-0.99;97.78;101824.53;5092769;28;20464;-79
2022/03/04 04:13:38;;;;;;;50.17;20.55;;;;;;;-1.04;98.29;101829.31;5092951;28;20090;-79
2022/03/04 04:16:04;;;;;;;51.03;20.33;;;;;;;-1.01;98.14;101836.94;5092490;28;20047;-79
2022/03/04 04:21:52;;;;;;;45.10;19.15;;;;;;;-1.05;98.29;101835.50;5093332;28;20070;-79
2022/03/04 04:24:18;;;;;;;50.97;21.70;;;;;;;-1.14;98.57;101827.50;5074449;28;20044;-78
2022/03/04 04:26:44;;;;;;;51.47;22.80;;;;;;;-1.15;98.98;101842.41;5093141;28;20027;-78
2022/03/04 04:29:09;;;;;;;51.65;23.27;;;;;;;-1.14;98.63;101841.44;5074587;28;20472;-78
2022/03/04 04:34:56;;;;;;;53.83;21.60;;;;;;;-1.21;99.39;101842.81;5093340;28;20149;-77
2022/03/04 04:37:22;;;;;;;56.05;22.20;;;;;;;-1.23;99.60;101839.47;5074041;28;20079;-77
2022/03/04 04:39:47;;;;;;;53.92;20.77;;;;;;;-1.24;99.43;101837.81;5092680;28;20468;-77
2022/03/04 04:42:12;;;;;;;49.38;21.65;;;;;;;-1.23;99.80;101847.34;5091811;28;20040;-77
2022/03/04 04:44:38;;;;;;;52.03;22.65;;;;;;;-1.27;99.18;101840.66;5092882;28;20028;-76
2022/03/04 04:47:04;;;;;;;56.17;20.88;;;;;;;-1.26;100.00;101850.19;5092500;28;20032;-77
2022/03/04 04:52:50;;;;;;;57.35;24.20;;;;;;;-1.32;100.00;101858.53;5092980;28;20097;-76
2022/03/04 04:55:16;;;;;;;50.00;22.40;;;;;;;-1.35;100.00;101851.72;5091707;28;20434;-76
2022/03/04 04:57:41;;;;;;;51.47;22.40;;;;;;;-1.37;100.00;101858.03;5092779;28;20110;-76
2022/03/04 05:00:07;;;;;;;58.13;24.10;;;;;;;-1.39;100.00;101852.06;5091711;28;20047;-76
2022/03/04 05:05:56;;;;;;;59.70;23.23;;;;;;;-1.39;100.00;101847.66;5092738;28;20085;-75
2022/03/04 05:08:24;;;;;;;51.15;22.40;;;;;;;-1.40;100.00;101853.00;5074287;28;20020;-76
2022/03/04 05:10:49;;;;;;;59.92;23.85;;;;;;;-1.47;100.00;101843.88;5091137;28;20475;-77
2022/03/04 05:13:15;;;;;;;51.55;23.40;;;;;;;-1.48;100.00;101842.22;5091616;28;20040;-77
2022/03/04 05:15:41;;;;;;;62.60;25.92;;;;;;;-1.50;100.00;101846.75;5092343;28;20170;-75
2022/03/04 05:18:08;;;;;;;55.85;23.90;;;;;;;-1.48;100.00;101843.06;5091293;28;20530;-77
2022/03/04 05:20:33;;;;;;;58.78;25.55;;;;;;;-1.51;100.00;101847.69;5073861;28;20024;-77
2022/03/04 05:22:58;;;;;;;56.13;25.08;;;;;;;-1.53;100.00;101845.19;5091497;28;20425;-76
2022/03/04 05:25:24;;;;;;;57.45;24.33;;;;;;;-1.57;100.00;101848.97;5073521;28;20044;-76
2022/03/04 05:27:50;;;;;;;58.47;23.90;;;;;;;-1.57;100.00;101846.34;5090603;28;20089;-76
2022/03/04 05:30:16;;;;;;;60.72;25.73;;;;;;;-1.60;100.00;101844.78;5090964;28;20067;-77
2022/03/04 05:32:41;;;;;;;61.78;24.83;;;;;;;-1.60;100.00;101850.03;5091842;28;20059;-76
2022/03/04 05:35:07;;;;;;;61.00;26.75;;;;;;;-1.59;100.00;101853.50;5073254;28;20016;-78
2022/03/04 05:37:33;;;;;;;61.40;26.25;;;;;;;-1.60;100.00;101850.03;5073927;28;20492;-78
2022/03/04 05:43:20;;;;;;;59.80;24.13;;;;;;;-1.57;100.00;101854.22;5091981;28;20122;-77
2022/03/04 05:45:45;;;;;;;60.70;23.30;;;;;;;-1.65;100.00;101849.53;5090378;28;20067;-78
2022/03/04 05:48:11;;;;;;;65.15;24.88;;;;;;;-1.65;100.00;101867.03;5073202;28;20549;-77
2022/03/04 05:50:36;;;;;;;58.47;23.52;;;;;;;-1.67;100.00;101869.78;5091955;28;20064;-76
2022/03/04 05:53:02;;;;;;;58.08;23.83;;;;;;;-1.71;100.00;101870.13;5072919;28;20039;-76
2022/03/04 05:55:27;;;;;;;56.42;24.10;;;;;;;-1.71;100.00;101877.97;5091619;28;20488;-76
2022/03/04 06:01:14;;;;;;;63.80;25.80;;;;;;;-1.85;100.00;101889.41;5092037;28;20142;-77
2022/03/04 06:03:39;;;;;;;65.03;25.13;;;;;;;-1.90;100.00;101878.44;5073335;28;20107;-77
2022/03/04 06:06:05;;;;;;;57.05;23.00;;;;;;;-1.96;100.00;101881.47;5090750;28;20036;-78
2022/03/04 06:11:52;;;;;;;59.42;25.75;;;;;;;-2.06;100.00;101875.19;5091584;28;20086;-76
2022/03/04 06:14:17;;;;;;;68.15;28.05;;;;;;;-1.97;100.00;101888.50;5091485;28;20024;-76
2022/03/04 06:16:42;;;;;;;64.70;27.63;;;;;;;-1.96;100.00;101889.34;5090793;28;20133;-76
2022/03/04 06:19:08;;;;;;;63.58;27.30;;;;;;;-1.97;100.00;101877.19;5073159;28;20028;-79
2022/03/04 06:21:34;;;;;;;63.10;27.23;;;;;;;-1.93;100.00;101886.50;5091425;28;20529;-78
2022/03/04 06:23:59;;;;;;;61.30;24.65;;;;;;;-1.91;100.00;101895.94;5072668;28;20064;-78
2022/03/04 06:26:24;;;;;;;68.28;27.85;;;;;;;-1.87;100.00;101894.78;5091139;28;20034;-78
2022/03/04 06:28:49;;;;;;;65.18;27.75;;;;;;;-1.71;100.00;101904.19;5089379;28;20036;-77
2022/03/04 06:34:37;;;;;;;61.78;26.13;;;;;;;-0.78;100.00;101893.00;5091463;28;20097;-77
2022/03/04 06:40:24;;;;;;;60.22;24.92;;;;;;;0.45;95.80;101895.72;5093688;28;20400;-78
2022/03/04 06:42:49;;;;;;;64.53;26.98;;;;;;;0.92;92.31;101891.88;5094337;28;20028;-78
2022/03/04 06:45:15;;;;;;;59.97;24.23;;;;;;;1.55;89.24;101905.94;5094469;28;20024;-77
2022/03/04 06:51:03;;;;;;;59.58;24.40;;;;;;;2.88;80.16;101901.41;5094538;28;20061;-79
2022/03/04 06:53:28;;;;;;;59.40;24.52;;;;;;;3.43;78.64;101905.16;5075637;28;20464;-78
2022/03/04 06:59:15;;;;;;;53.30;23.95;;;;;;;4.66;70.25;101906.66;5094715;28;20042;-78
2022/03/04 07:08:24;;;;;;;58.35;23.20;;;;;;;6.47;62.46;101929.91;5094476;28;20043;-79
2022/03/04 07:10:49;;;;;;;53.08;22.38;;;;;;;6.77;60.28;101930.34;5093460;28;20048;-78
2022/03/04 07:13:16;;;;;;;49.08;21.98;;;;;;;7.06;59.08;101940.53;5094231;28;20120;-77
2022/03/04 07:19:03;;;;;;;54.30;24.77;;;;;;;7.42;55.78;101933.09;5094906;28;20062;-80
2022/03/04 07:21:28;;;;;;;49.05;22.73;;;;;;;7.68;55.26;101947.06;5093517;28;20083;-82
2022/03/04 07:27:15;;;;;;;51.63;22.50;;;;;;;7.95;53.59;101945.03;5094825;28;20515;-81
2022/03/04 07:33:03;;;;;;;51.78;23.05;;;;;;;8.56;51.86;101947.03;5094021;28;20097;-80
2022/03/04 07:42:12;;;;;;;50.17;22.30;;;;;;;9.87;48.62;101950.44;5093450;28;20047;-78
2022/03/04 07:44:37;;;;;;;53.10;22.88;;;;;;;10.49;46.80;101951.97;5091820;28;20020;-79
2022/03/04 07:47:03;;;;;;;51.38;22.58;;;;;;;10.79;46.39;101950.06;5074792;28;20036;-79
2022/03/04 07:49:28;;;;;;;52.33;23.58;;;;;;;11.01;45.25;101949.09;5093664;28;20427;-79
2022/03/04 07:51:54;;;;;;;50.75;24.63;;;;;;;11.06;44.07;101948.50;5091716;28;20055;-78
2022/03/04 07:57:42;;;;;;;49.72;24.55;;;;;;;11.12;43.84;101951.25;5093939;28;20526;-75
2022/03/04 08:00:12;;;;;;;49.55;23.83;;;;;;;10.85;44.69;101949.31;5092856;28;20480;-76
2022/03/04 08:02:39;;;;;;;53.78;25.77;;;;;;;9.84;46.96;101958.81;5074423;28;20472;-76
2022/03/04 08:05:06;;;;;;;52.60;23.73;;;;;;;9.20;49.21;101966.31;5092036;28;20048;-76
2022/03/04 08:07:33;;;;;;;54.38;24.25;;;;;;;9.12;50.58;101955.72;5074543;28;20123;-77
2022/03/04 08:09:58;;;;;;;52.78;25.52;;;;;;;8.94;49.62;101955.16;5092062;28;20626;-76
2022/03/04 08:12:23;;;;;;;56.33;25.02;;;;;;;8.93;51.03;101951.66;5092734;28;20110;-77
2022/03/04 08:14:48;;;;;;;55.40;26.90;;;;;;;9.75;48.20;101951.88;5074621;28;20035;-76
2022/03/04 08:17:14;;;;;;;55.17;24.53;;;;;;;9.95;47.63;101960.22;5091784;28;20040;-76
2022/03/04 08:19:39;;;;;;;54.30;24.42;;;;;;;10.04;48.32;101960.94;5092646;28;20301;-76
2022/03/04 08:22:05;;;;;;;54.83;26.02;;;;;;;10.09;47.79;101969.25;5091736;28;20044;-76
2022/03/04 08:24:30;;;;;;;51.90;24.98;;;;;;;10.41;47.34;101968.09;5092625;28;20039;-76
2022/03/04 08:26:56;;;;;;;57.40;26.42;;;;;;;11.06;44.92;101969.94;5073508;28;20067;-76
2022/03/04 08:29:21;;;;;;;50.93;24.53;;;;;;;11.90;42.97;101973.63;5092419;28;20036;-76
2022/03/04 08:31:46;;;;;;;59.83;26.35;;;;;;;12.03;41.94;101967.53;5092292;28;20285;-76
2022/03/04 08:34:11;;;;;;;52.87;24.67;;;;;;;11.78;42.49;101983.19;5091657;28;20038;-77
2022/03/04 08:36:37;;;;;;;52.65;25.23;;;;;;;10.80;43.40;101971.28;5092319;28;20764;-77
2022/03/04 08:39:05;;;;;;;58.53;27.02;;;;;;;9.83;47.18;101988.34;5091296;28;20040;-76
2022/03/04 08:41:32;;;;;;;48.13;23.90;;;;;;;9.16;50.39;101975.69;5092151;28;20035;-76
2022/03/04 08:43:57;;;;;;;61.92;27.40;;;;;;;8.77;51.12;101978.44;5073880;28;20129;-77
2022/03/04 08:46:22;;;;;;;57.50;26.80;;;;;;;8.21;51.08;101980.25;5091580;28;20137;-77
2022/03/04 08:48:48;;;;;;;52.03;24.73;;;;;;;8.17;51.77;101994.09;5092181;28;20031;-77
2022/03/04 08:51:13;;;;;;;54.55;26.40;;;;;;;7.96;50.75;101992.78;5091298;28;20040;-77
2022/03/04 08:57:00;;;;;;;48.90;21.75;;;;;;;8.75;48.83;101990.28;5092455;28;20131;-77
2022/03/04 08:59:25;;;;;;;51.70;25.63;;;;;;;8.63;49.65;101997.81;5092083;28;20107;-76
2022/03/04 09:01:50;;;;;;;58.42;26.00;;;;;;;8.55;49.33;102003.16;5090853;28;20276;-76
2022/03/04 09:04:17;;;;;;;54.10;27.25;;;;;;;8.25;50.91;101989.56;5091906;28;20050;-76
2022/03/04 09:06:43;;;;;;;49.88;24.05;;;;;;;7.77;52.35;101996.63;5091872;28;20032;-76
2022/03/04 09:09:08;;;;;;;46.10;21.27;;;;;;;8.20;50.79;101994.59;5091034;28;20097;-77
2022/03/04 09:11:34;;;;;;;63.28;28.27;;;;;;;8.76;51.85;101987.44;5073533;28;20016;-77
2022/03/04 09:14:00;;;;;;;56.90;24.75;;;;;;;8.61;50.14;101984.66;5073145;28;20036;-76
2022/03/04 09:16:25;;;;;;;57.85;22.45;;;;;;;8.65;49.96;102003.78;5091752;28;20107;-77
2022/03/04 09:18:50;;;;;;;53.03;25.55;;;;;;;9.42;47.48;101995.88;5091169;28;20544;-76
2022/03/04 09:21:16;;;;;;;63.38;29.50;;;;;;;10.23;45.64;101987.19;5091338;28;20530;-77
2022/03/04 09:23:41;;;;;;;73.10;33.15;;;;;;;10.24;45.77;101987.00;5091432;28;20039;-77
2022/03/04 09:26:06;;;;;;;54.60;26.23;;;;;;;10.50;44.73;101991.06;5090794;28;20097;-77
2022/03/04 09:28:32;;;;;;;55.85;26.73;;;;;;;11.17;43.89;101978.28;5073436;28;20330;-77
2022/03/04 09:30:57;;;;;;;58.63;27.13;;;;;;;12.41;40.23;101986.72;5090755;28;20044;-77
2022/03/04 09:33:23;;;;;;;54.75;23.90;;;;;;;13.32;38.14;101977.41;5091441;28;20488;-77
2022/03/04 09:35:48;;;;;;;63.60;26.15;;;;;;;13.19;38.31;101980.06;5091448;28;20028;-77
2022/03/04 09:38:13;;;;;;;59.00;26.92;;;;;;;12.46;40.91;101973.56;5072625;28;20054;-77
2022/03/04 09:40:39;;;;;;;57.33;28.43;;;;;;;12.61;40.08;101973.44;5091329;28;20032;-77
2022/03/04 09:43:07;;;;;;;57.33;27.58;;;;;;;12.57;40.88;101978.38;5089291;28;20305;-77
2022/03/04 09:45:32;;;;;;;61.72;30.48;;;;;;;12.36;39.73;101959.69;5091345;28;20024;-77
2022/03/04 09:48:00;;;;;;;59.55;29.20;;;;;;;13.20;39.54;101970.16;5090656;28;20032;-77
2022/03/04 09:50:27;;;;;;;68.35;29.02;;;;;;;13.84;37.60;101983.84;5072954;28;20059;-77
2022/03/04 09:52:52;;;;;;;65.22;31.60;;;;;;;13.71;37.89;101966.91;5091275;28;20127;-77
2022/03/04 09:55:17;;;;;;;65.72;29.15;;;;;;;13.01;39.29;101966.38;5090298;28;20135;-76
2022/03/04 09:57:43;;;;;;;60.93;28.73;;;;;;;13.42;37.98;101984.25;5091168;28;20031;-77
2022/03/04 10:00:11;;;;;;;62.35;30.73;;;;;;;13.32;39.01;101974.72;5072179;28;20316;-77
2022/03/04 10:02:37;;;;;;;67.80;29.75;;;;;;;13.16;37.99;101969.69;5091063;28;20464;-76
2022/03/04 10:08:24;;;;;;;71.32;32.85;;;;;;;12.71;40.04;101963.13;5091984;28;20061;-77
2022/03/04 10:10:54;;;;;;;66.10;29.58;;;;;;;11.68;42.83;101963.94;5072813;28;20032;-77
2022/03/04 10:13:46;;;;;;;66.47;30.85;;;;;;;10.78;43.25;101970.63;5090098;28;20044;-77
2022/03/04 10:16:14;;;;;;;69.00;34.17;;;;;;;10.56;45.63;101974.25;5094491;28;20035;-77
2022/03/04 10:18:39;;;;;;;70.53;30.50;;;;;;;11.24;44.52;101983.69;5075798;28;20386;-77
2022/03/04 10:21:05;;;;;;;66.70;25.48;;;;;;;12.14;41.67;101980.38;5094445;28;20020;-77
2022/03/04 10:23:30;;;;;;;64.30;30.27;;;;;;;11.74;42.35;101987.25;5075535;28;20485;-78
2022/03/04 10:25:58;;;;;;;56.85;25.08;;;;;;;11.68;41.73;101996.09;5094368;28;20036;-77
2022/03/04 10:28:26;;;;;;;72.70;31.00;;;;;;;11.61;42.72;101995.19;5092533;28;20705;-77
2022/03/04 10:30:55;;;;;;;68.88;31.88;;;;;;;12.18;42.93;101988.88;5094041;28;20484;-77
2022/03/04 10:33:22;;;;;;;70.50;27.83;;;;;;;12.82;39.99;101984.06;5094156;28;20024;-78
2022/03/04 10:36:04;;;;;;;67.32;29.30;;;;;;;12.45;40.77;101982.66;5093415;28;20056;-77
2022/03/04 10:38:30;;;;;;;64.43;29.50;;;;;;;11.84;40.54;101977.06;5076169;28;20028;-77
2022/03/04 10:40:55;;;;;;;66.40;28.80;;;;;;;11.29;42.59;101978.63;5093223;28;20059;-77
2022/03/04 10:43:30;;;;;;;64.15;28.75;;;;;;;11.08;43.18;101981.28;5094052;28;20067;-77
2022/03/04 10:46:01;;;;;;;68.35;28.15;;;;;;;11.32;44.14;101988.13;5092227;28;20498;-77
2022/03/04 10:48:27;;;;;;;65.78;29.05;;;;;;;12.40;40.91;101979.72;5093853;28;20469;-77
2022/03/04 10:50:57;;;;;;;65.53;28.02;;;;;;;13.87;38.09;101974.53;5093762;28;20081;-77
2022/03/04 10:53:26;;;;;;;66.05;26.30;;;;;;;15.41;35.37;101982.69;5092990;28;20400;-77
2022/03/04 10:56:04;;;;;;;70.82;32.60;;;;;;;15.92;34.41;101970.94;5093753;28;20077;-77
2022/03/04 10:58:33;;;;;;;70.80;31.17;;;;;;;15.55;34.88;101975.34;5093003;28;20044;-77
2022/03/04 11:01:02;;;;;;;61.03;27.65;;;;;;;13.94;35.44;101973.50;5093768;28;20026;-77
2022/03/04 11:03:32;;;;;;;73.65;31.48;;;;;;;13.09;39.32;101976.09;5093036;28;20032;-77
2022/03/04 11:06:02;;;;;;;77.75;34.78;;;;;;;12.77;39.21;101974.94;5075306;28;20044;-77
2022/03/04 11:11:53;;;;;;;74.93;34.70;;;;;;;13.04;39.25;101968.66;5093491;28;20104;-78
2022/03/04 11:14:25;;;;;;;66.20;31.23;;;;;;;13.08;38.44;101971.75;5090487;28;20063;-77
2022/03/04 11:16:56;;;;;;;67.95;29.77;;;;;;;12.88;38.46;101969.00;5077546;28;20441;-77
2022/03/04 11:19:27;;;;;;;65.22;27.05;;;;;;;12.12;39.23;101960.16;5076368;28;20064;-77
2022/03/04 11:21:55;;;;;;;73.30;30.48;;;;;;;11.26;43.69;101957.56;5078390;28;20047;-77
2022/03/04 11:24:29;;;;;;;68.88;28.45;;;;;;;10.97;43.51;101954.97;5074931;28;20495;-77
2022/03/04 11:27:04;;;;;;;69.30;30.27;;;;;;;10.70;44.80;101956.56;5076586;28;20043;-77
2022/03/04 11:29:35;;;;;;;67.07;29.85;;;;;;;11.23;43.99;101955.25;5091829;28;20052;-77
2022/03/04 11:35:47;;;;;;;66.75;28.85;;;;;;;13.01;41.41;101952.94;5093510;28;20442;-77
2022/03/04 11:38:13;;;;;;;64.78;28.80;;;;;;;13.94;39.15;101952.00;5074383;28;20066;-77
2022/03/04 11:41:09;;;;;;;73.43;30.20;;;;;;;13.30;39.57;101949.09;5074909;28;20072;-77
2022/03/04 11:44:22;;;;;;;66.43;28.42;;;;;;;12.14;42.35;101952.72;5074897;28;20052;-77
2022/03/04 11:47:05;;;;;;;74.43;30.63;;;;;;;11.80;42.92;101946.31;5076097;28;20035;-77
2022/03/04 11:49:44;;;;;;;74.13;32.28;;;;;;;11.84;42.26;101946.75;5079642;28;20476;-77
2022/03/04 11:52:19;;;;;;;61.30;29.25;;;;;;;12.71;37.79;101945.19;5086138;28;20400;-77
2022/03/04 11:54:51;;;;;;;63.50;29.27;;;;;;;13.85;35.79;101950.53;5093034;28;20035;-77
2022/03/04 11:57:34;;;;;;;64.40;29.15;;;;;;;14.31;38.21;101938.88;5091931;28;20036;-77
2022/03/04 12:00:24;;;;;;;60.85;26.92;;;;;;;13.96;37.64;101946.41;5092752;28;20042;-77
2022/03/04 12:03:14;;;;;;;60.60;27.00;;;;;;;14.81;35.56;101944.50;5091397;28;20036;-77
2022/03/04 12:05:47;;;;;;;55.08;24.55;;;;;;;15.74;32.96;101948.25;5072108;28;20407;-77
2022/03/04 12:08:35;;;;;;;;;;;;;;;16.14;33.13;101942.47;5092348;28;20036;-77
2022/03/04 12:11:01;;;;;;;55.30;24.38;;;;;;;15.38;31.76;101930.06;5092699;28;19916;-77
2022/03/04 12:13:31;;;;;;;63.47;26.55;;;;;;;14.26;34.26;101936.81;5074123;28;20113;-75
2022/03/04 12:19:30;;;;;;;63.28;28.90;;;;;;;14.53;34.18;101932.22;5089439;28;20184;-76
2022/03/04 12:21:58;;;;;;;59.50;27.25;;;;;;;14.73;32.38;101939.34;5092575;28;20129;-74
2022/03/04 12:24:31;;;;;;;62.53;28.98;;;;;;;15.01;32.38;101923.66;5092529;28;20032;-75
2022/03/04 12:26:57;;;;;;;55.05;25.25;;;;;;;14.92;31.37;101927.66;5077558;28;20100;-75
2022/03/04 12:29:41;;;;;;;57.97;26.88;;;;;;;14.63;32.41;101923.66;5092460;28;20400;-76
2022/03/04 12:32:06;;;;;;;54.80;25.27;;;;;;;14.61;33.55;101931.13;5091582;28;20048;-75
2022/03/04 12:34:32;;;;;;;58.30;26.52;;;;;;;15.34;32.52;101926.16;5092365;28;20127;-75
2022/03/04 12:37:00;;;;;;;54.90;24.98;;;;;;;15.41;30.34;101926.09;5072837;28;20047;-75
2022/03/04 12:39:25;;;;;;;49.60;24.52;;;;;;;15.23;30.85;101932.22;5073752;28;20043;-76
2022/03/04 12:41:57;;;;;;;57.00;26.87;;;;;;;15.58;30.89;101921.81;5092121;28;20095;-76
2022/03/04 12:44:22;;;;;;;60.05;25.27;;;;;;;15.80;30.92;101920.38;5091328;28;20718;-75
2022/03/04 12:46:47;;;;;;;55.50;26.15;;;;;;;15.44;30.76;101909.47;5092098;28;20107;-76
2022/03/04 12:49:15;;;;;;;60.28;27.70;;;;;;;14.87;34.59;101919.41;5091270;28;20040;-75
2022/03/04 12:51:42;;;;;;;51.00;26.23;;;;;;;14.60;31.41;101918.72;5073903;28;20028;-75
2022/03/04 12:54:17;;;;;;;58.08;25.88;;;;;;;15.06;31.90;101902.31;5091636;28;20040;-75
2022/03/04 12:56:55;;;;;;;47.10;23.55;;;;;;;15.82;32.01;101905.84;5091754;28;20504;-75
2022/03/04 12:59:21;;;;;;;48.13;22.95;;;;;;;16.66;29.81;101910.53;5092069;28;20028;-75
2022/03/04 13:01:47;;;;;;;51.10;25.05;;;;;;;17.09;29.11;101906.81;5091397;28;20102;-76
2022/03/04 13:04:13;;;;;;;46.65;24.10;;;;;;;16.70;31.12;101893.63;5091775;28;20471;-75
2022/03/04 13:06:39;;;;;;;51.42;25.50;;;;;;;16.41;28.11;101897.91;5090977;28;20043;-75
2022/03/04 13:09:06;;;;;;;47.53;22.38;;;;;;;16.65;28.51;101898.84;5090505;28;20043;-76
2022/03/04 13:11:40;;;;;;;49.45;22.33;;;;;;;16.83;28.74;101894.50;5091707;28;20532;-75
2022/03/04 13:14:11;;;;;;;39.80;20.35;;;;;;;16.75;28.98;101898.34;5091449;28;20052;-75
2022/03/04 13:16:39;;;;;;;49.30;24.55;;;;;;;15.78;29.05;101890.13;5091709;28;20504;-76
2022/03/04 13:19:06;;;;;;;49.13;23.25;;;;;;;14.71;30.59;101887.59;5072734;28;20052;-76
2022/03/04 13:22:06;;;;;;;47.05;25.88;;;;;;;13.51;32.63;101884.41;5090520;28;20509;-75
2022/03/04 13:24:35;;;;;;;44.20;24.48;;;;;;;13.77;35.94;101883.56;5090349;28;20043;-76
2022/03/04 13:27:08;;;;;;;48.38;22.52;;;;;;;14.67;31.19;101876.44;5091591;28;20034;-76
2022/03/04 13:29:40;;;;;;;46.13;19.85;;;;;;;15.49;30.13;101890.78;5090644;28;20047;-75
2022/03/04 13:32:20;;;;;;;45.70;19.80;;;;;;;15.55;29.10;101879.09;5073396;28;20050;-75
2022/03/04 13:35:10;;;;;;;50.58;23.48;;;;;;;15.29;29.04;101882.03;5091416;28;20032;-75
2022/03/04 13:37:42;;;;;;;39.35;18.85;;;;;;;15.32;30.37;101882.41;5071629;28;20032;-75
2022/03/04 13:40:09;;;;;;;46.53;22.15;;;;;;;15.34;29.32;101879.50;5091241;28;20032;-75
2022/03/04 13:42:42;;;;;;;41.75;20.90;;;;;;;15.53;28.94;101875.81;5090435;28;20043;-75
2022/03/04 13:45:10;;;;;;;45.63;21.95;;;;;;;15.04;29.42;101876.63;5091504;28;20480;-76
2022/03/04 13:47:57;;;;;;;47.17;22.08;;;;;;;15.63;30.36;101873.47;5090426;28;20395;-75
2022/03/04 13:54:03;;;;;;;45.28;21.08;;;;;;;15.29;30.46;101873.94;5091637;28;20396;-74
2022/03/04 13:56:39;;;;;;;47.03;21.83;;;;;;;14.16;31.50;101868.34;5076671;28;20048;-75